createdAt,value
2023-02-12T12:59:27.303Z,17.00
2023-02-12T13:00:38.100Z,14.25
2023-02-12T13:01:54.907Z,18.33
2023-02-12T13:03:05.354Z,15.65
2023-02-12T13:04:40.767Z,12.15
2023-02-12T13:05:51.231Z,15.23
2023-02-12T13:07:03.294Z,14.35
2023-02-12T13:08:33.811Z,16.50
2023-02-12T13:10:09.540Z,14.48
2023-02-12T13:11:33.367Z,10.57
2023-02-12T13:12:40.936Z,14.60
2023-02-12T13:13:47.292Z,17.67
2023-02-12T13:14:57.716Z,15.73
2023-02-12T13:16:21.619Z,13.38
2023-02-12T13:17:45.985Z,18.58
2023-02-12T13:19:29.375Z,12.93
2023-02-12T13:20:47.416Z,11.68
2023-02-12T13:21:58.916Z,12.50
2023-02-12T13:23:07.491Z,11.52
2023-02-12T13:24:30.171Z,11.05
2023-02-12T13:25:42.549Z,9.57
2023-02-12T13:26:53.021Z,12.65
2023-02-12T13:27:56.504Z,13.82
2023-02-12T13:29:09.893Z,11.52
2023-02-12T13:30:14.263Z,14.90
2023-02-12T13:31:35.736Z,13.13
2023-02-12T13:32:43.447Z,13.50
2023-02-12T13:33:50.290Z,11.05
2023-02-12T13:34:54.414Z,16.40
2023-02-12T13:36:00.290Z,11.93
2023-02-12T13:37:04.117Z,11.45
2023-02-12T13:38:08.683Z,12.43
2023-02-12T13:39:41.593Z,13.63
2023-02-12T13:40:43.210Z,11.85
2023-02-12T13:41:54.054Z,11.55
2023-02-12T13:43:00.032Z,10.45
2023-02-12T13:44:26.275Z,11.98
2023-02-12T13:45:33.607Z,12.68
2023-02-12T13:47:12.681Z,24.58
2023-02-12T13:48:32.659Z,23.27
2023-02-12T13:49:52.412Z,23.55
2023-02-12T13:51:01.350Z,18.02
2023-02-12T13:52:10.553Z,16.20
2023-02-12T13:53:22.905Z,13.93
2023-02-12T13:55:12.607Z,16.80
2023-02-12T13:56:29.052Z,13.25
2023-02-12T13:57:30.602Z,12.77
2023-02-12T13:58:35.052Z,9.75
2023-02-12T13:59:36.462Z,13.68
2023-02-12T14:00:50.644Z,13.10
2023-02-12T14:01:52.960Z,10.32
2023-02-12T14:02:54.452Z,11.20
2023-02-12T14:03:55.840Z,14.63
2023-02-12T14:05:01.225Z,14.40
2023-02-12T14:06:16.336Z,12.45
2023-02-12T14:07:19.462Z,10.93
2023-02-12T14:08:42.278Z,9.85
2023-02-12T14:09:59.785Z,12.13
2023-02-12T14:11:10.590Z,10.40
2023-02-12T14:12:27.267Z,10.65
2023-02-12T14:13:34.053Z,11.65
2023-02-12T14:14:40.742Z,11.15
2023-02-12T14:15:45.037Z,12.05
2023-02-12T14:16:46.666Z,10.43
2023-02-12T14:18:04.025Z,15.63
2023-02-12T14:20:03.265Z,14.43
2023-02-12T14:21:13.461Z,10.15
2023-02-12T14:22:35.041Z,14.82
2023-02-12T14:23:36.831Z,14.15
2023-02-12T14:24:38.163Z,9.48
2023-02-12T14:25:46.859Z,10.02
2023-02-12T14:26:48.484Z,13.93
2023-02-12T14:28:06.507Z,10.00
2023-02-12T14:29:21.098Z,8.25
2023-02-12T14:30:33.995Z,10.38
2023-02-12T14:31:37.656Z,11.15
2023-02-12T14:32:44.797Z,11.75
2023-02-12T14:33:48.940Z,11.20
2023-02-12T14:34:51.741Z,13.23
2023-02-12T14:36:32.188Z,10.13
2023-02-12T14:37:37.996Z,10.00
2023-02-12T14:38:47.384Z,9.35
2023-02-12T14:39:49.436Z,11.68
2023-02-12T14:40:52.564Z,14.35
2023-02-12T14:42:14.943Z,11.05
2023-02-12T14:43:56.823Z,10.15
2023-02-12T14:44:58.815Z,10.95
2023-02-12T14:46:22.094Z,10.68
2023-02-12T14:47:29.743Z,15.30
2023-02-12T14:48:52.207Z,9.13
2023-02-12T14:49:55.800Z,9.15
2023-02-12T14:50:57.664Z,8.10
2023-02-12T14:52:06.638Z,9.30
2023-02-12T14:53:35.364Z,10.13
2023-02-12T14:54:50.132Z,7.85
2023-02-12T14:55:52.490Z,8.48
2023-02-12T14:56:55.583Z,9.57
2023-02-12T14:58:00.256Z,9.38
2023-02-12T14:59:03.840Z,9.00
2023-02-12T15:00:23.743Z,10.48
2023-02-12T15:01:36.580Z,11.00
2023-02-12T15:02:41.703Z,7.97
2023-02-12T15:03:49.270Z,10.55
2023-02-12T15:04:52.933Z,10.05
2023-02-12T15:06:25.067Z,8.45
2023-02-12T15:07:37.222Z,10.70
2023-02-12T15:08:48.759Z,11.18
2023-02-12T15:10:15.353Z,10.98
2023-02-12T15:11:45.052Z,9.43
2023-02-12T15:12:57.856Z,14.73
2023-02-12T15:14:23.755Z,8.85
2023-02-12T15:15:33.824Z,10.35
2023-02-12T15:16:47.054Z,10.32
2023-02-12T15:17:59.218Z,9.57
2023-02-12T15:19:25.524Z,11.55
2023-02-12T15:20:37.538Z,9.70
2023-02-12T15:21:39.316Z,9.95
2023-02-12T15:22:41.245Z,8.38
2023-02-12T15:23:44.402Z,9.50
2023-02-12T15:24:47.014Z,9.85
2023-02-12T15:25:50.834Z,7.90
2023-02-12T15:26:58.126Z,10.07
2023-02-12T15:28:02.701Z,9.90
2023-02-12T15:29:04.710Z,9.00
2023-02-12T15:30:08.734Z,7.93
2023-02-12T15:31:16.825Z,7.90
2023-02-12T15:32:29.801Z,7.63
2023-02-12T15:33:33.896Z,9.35
2023-02-12T15:34:40.027Z,6.93
2023-02-12T15:35:45.115Z,7.50
2023-02-12T15:36:46.561Z,6.72
2023-02-12T15:37:49.559Z,8.18
2023-02-12T15:39:06.741Z,6.68
2023-02-12T15:40:14.827Z,8.73
2023-02-12T15:41:38.496Z,5.63
2023-02-12T15:42:42.415Z,7.00
2023-02-12T15:43:43.808Z,9.70
2023-02-12T15:44:45.210Z,5.43
2023-02-12T15:45:51.811Z,6.13
2023-02-12T15:46:58.465Z,5.65
2023-02-12T15:48:09.103Z,6.60
2023-02-12T15:49:22.188Z,8.20
2023-02-12T15:50:24.234Z,6.22
2023-02-12T15:51:41.474Z,5.72
2023-02-12T15:52:46.492Z,10.85
2023-02-12T15:53:48.220Z,6.05
2023-02-12T15:54:49.820Z,5.70
2023-02-12T15:55:52.031Z,9.63
2023-02-12T15:56:54.788Z,6.55
2023-02-12T15:57:59.913Z,7.57
2023-02-12T15:59:02.899Z,6.60
2023-02-12T16:00:09.613Z,6.28
2023-02-12T16:01:18.995Z,8.30
2023-02-12T16:02:29.951Z,6.25
2023-02-12T16:03:32.979Z,7.05
2023-02-12T16:04:40.534Z,5.78
2023-02-12T16:05:42.102Z,6.30
2023-02-12T16:06:43.701Z,4.18
2023-02-12T16:07:46.618Z,5.45
2023-02-12T16:09:17.906Z,8.65
2023-02-12T16:10:20.730Z,4.35
2023-02-12T16:11:24.069Z,5.18
2023-02-12T16:12:31.020Z,5.07
2023-02-12T16:13:34.743Z,6.57
2023-02-12T16:14:47.144Z,4.47
2023-02-12T16:16:04.680Z,7.45
2023-02-12T16:17:27.517Z,4.82
2023-02-12T16:18:29.170Z,5.15
2023-02-12T16:19:36.916Z,5.65
2023-02-12T16:20:38.378Z,5.65
2023-02-12T16:21:39.942Z,6.68
2023-02-12T16:22:44.136Z,5.28
2023-02-12T16:23:48.734Z,5.25
2023-02-12T16:24:52.436Z,6.00
2023-02-12T16:25:55.427Z,7.35
2023-02-12T16:27:01.877Z,7.70
2023-02-12T16:28:20.768Z,6.72
2023-02-12T16:29:22.220Z,4.63
2023-02-12T16:30:28.272Z,6.22
